Time;durP1;ratioP1;P1;durP2;ratioP2;P2;SDS_P1;SDS_P2;PMS_P1;PMS_P2;Temp;Humidity;BMP_temperature;BMP_pressure;BME280_temperature;BME280_humidity;BME280_pressure;Samples;Min_cycle;Max_cycle;Signal;HPM_P1;HPM_P2
2024/01/22 00:01:35;;;;;;;37.50;18.60;;;;;;;-2.36;75.58;101669.00;4956322;29;20049;-26
2024/01/22 00:04:01;;;;;;;44.03;17.85;;;;;;;-2.25;75.31;101678.06;4956200;29;20113;-27
2024/01/22 00:06:26;;;;;;;39.85;18.48;;;;;;;-2.78;78.55;101685.72;4956170;29;20679;-26
2024/01/22 00:08:51;;;;;;;38.03;17.08;;;;;;;-2.44;78.49;101694.56;4955730;29;20039;-26
2024/01/22 00:11:16;;;;;;;35.03;16.50;;;;;;;-2.09;76.01;101686.84;4955926;29;20038;-26
2024/01/22 00:13:42;;;;;;;34.10;17.40;;;;;;;-2.14;74.82;101690.59;4956326;29;20122;-27
2024/01/22 00:16:07;;;;;;;38.08;17.40;;;;;;;-2.29;76.45;101695.63;4956596;29;20027;-28
2024/01/22 00:18:32;;;;;;;35.53;16.20;;;;;;;-2.28;75.94;101697.31;4956409;29;20030;-26
2024/01/22 00:20:58;;;;;;;36.35;16.50;;;;;;;-1.86;77.94;101695.34;4956321;29;20054;-26
2024/01/22 00:23:23;;;;;;;34.00;16.88;;;;;;;-1.65;77.77;101702.09;4955975;29;20035;-26
2024/01/22 00:25:49;;;;;;;42.20;18.50;;;;;;;-1.39;77.17;101702.53;4956224;29;20094;-26
2024/01/22 00:28:14;;;;;;;41.92;18.55;;;;;;;-0.91;75.69;101702.69;4955877;29;20094;-27
2024/01/22 00:30:39;;;;;;;35.20;17.15;;;;;;;-1.05;81.19;101704.25;4956154;29;20042;-27
2024/01/22 00:33:05;;;;;;;34.22;16.15;;;;;;;-1.66;77.43;101699.53;4950036;29;20048;-27
2024/01/22 00:35:30;;;;;;;32.05;16.23;;;;;;;-2.11;77.57;101706.97;4943761;29;20020;-26
2024/01/22 00:37:55;;;;;;;34.42;15.15;;;;;;;-2.35;76.77;101698.53;4949356;29;20031;-26
2024/01/22 00:40:21;;;;;;;31.83;15.73;;;;;;;-2.41;77.55;101699.66;4947360;29;20488;-27
2024/01/22 00:42:46;;;;;;;29.83;14.32;;;;;;;-2.70;79.40;101698.41;4942657;29;20023;-26
2024/01/22 00:45:11;;;;;;;28.00;13.20;;;;;;;-2.64;78.54;101702.50;4948529;29;20042;-33
2024/01/22 00:47:37;;;;;;;28.58;14.15;;;;;;;-2.65;79.05;101700.78;4946747;29;20382;-40
2024/01/22 00:50:03;;;;;;;30.33;14.68;;;;;;;-2.64;79.12;101692.91;4947002;29;20038;-26
2024/01/22 00:52:29;;;;;;;29.75;13.95;;;;;;;-2.69;78.04;101699.25;4951221;29;20106;-27
2024/01/22 00:54:54;;;;;;;27.92;14.18;;;;;;;-2.54;77.73;101687.28;4956064;29;20063;-42
2024/01/22 00:57:19;;;;;;;34.40;14.38;;;;;;;-2.24;76.17;101698.03;4955999;29;20451;-41
2024/01/22 00:59:45;;;;;;;24.63;12.43;;;;;;;-2.22;76.50;101697.03;4954732;28;20031;-39
2024/01/22 01:02:10;;;;;;;25.13;12.35;;;;;;;-2.34;75.50;101691.53;4955452;29;20023;-41
2024/01/22 01:04:35;;;;;;;22.10;11.93;;;;;;;-2.44;76.69;101697.19;4955167;29;20030;-40
2024/01/22 01:07:01;;;;;;;24.05;11.65;;;;;;;-2.52;77.09;101694.09;4954486;29;20031;-39
2024/01/22 01:09:27;;;;;;;25.40;12.32;;;;;;;-2.34;76.70;101697.63;4955314;29;20107;-39
2024/01/22 01:11:52;;;;;;;27.80;12.75;;;;;;;-2.45;77.24;101694.66;4949765;29;20040;-40
2024/01/22 01:14:18;;;;;;;28.15;12.63;;;;;;;-2.42;76.82;101686.69;4944508;29;20098;-41
2024/01/22 01:16:43;;;;;;;23.90;11.27;;;;;;;-2.40;76.50;101690.94;4946044;29;20106;-42
2024/01/22 01:19:08;;;;;;;23.98;11.52;;;;;;;-2.42;77.32;101684.06;4944635;29;20020;-39
2024/01/22 01:21:37;;;;;;;24.60;12.27;;;;;;;-2.44;77.25;101680.69;4944414;29;20444;-40
2024/01/22 01:24:03;;;;;;;24.73;12.23;;;;;;;-2.39;76.88;101678.72;4946062;29;20041;-40
2024/01/22 01:26:28;;;;;;;24.17;11.07;;;;;;;-2.47;77.50;101683.47;4943904;29;20019;-27
2024/01/22 01:28:54;;;;;;;29.17;11.80;;;;;;;-2.09;74.49;101678.19;4942297;29;20404;-27
2024/01/22 01:31:19;;;;;;;27.08;12.02;;;;;;;-2.16;74.93;101677.63;4943622;29;20034;-27
2024/01/22 01:33:44;;;;;;;26.05;12.55;;;;;;;-2.32;76.29;101677.53;4946230;29;20113;-27
2024/01/22 01:36:10;;;;;;;24.80;12.02;;;;;;;-2.56;76.95;101682.13;4935745;29;20055;-27
2024/01/22 01:38:36;;;;;;;24.58;10.70;;;;;;;-2.80;77.06;101676.28;4935581;29;20024;-26
2024/01/22 01:41:01;;;;;;;22.38;10.75;;;;;;;-2.87;76.49;101678.31;4935503;29;20027;-26
2024/01/22 01:43:27;;;;;;;30.27;11.85;;;;;;;-2.65;76.18;101682.53;4935626;29;20046;-25
2024/01/22 01:45:53;;;;;;;28.38;12.38;;;;;;;-2.43;74.51;101680.63;4935768;29;20028;-25
2024/01/22 01:48:19;;;;;;;28.88;10.88;;;;;;;-2.56;74.38;101676.91;4935379;29;20030;-26
2024/01/22 01:50:44;;;;;;;23.70;12.50;;;;;;;-2.52;74.75;101673.22;4935586;29;20066;-26
2024/01/22 01:53:10;;;;;;;26.02;12.80;;;;;;;-2.73;76.02;101666.41;4935527;29;20030;-26
2024/01/22 01:55:37;;;;;;;26.15;12.02;;;;;;;-2.74;75.47;101670.81;4935385;29;20066;-26
2024/01/22 01:58:03;;;;;;;25.50;12.35;;;;;;;-2.60;74.96;101662.34;4948715;29;20400;-26
2024/01/22 02:00:29;;;;;;;26.63;12.07;;;;;;;-2.73;75.40;101663.81;4943970;29;20030;-26
2024/01/22 02:02:54;;;;;;;24.33;11.80;;;;;;;-3.03;76.51;101653.88;4952664;29;20102;-27
2024/01/22 02:05:20;;;;;;;23.30;11.82;;;;;;;-2.74;75.08;101665.59;4953996;29;20126;-27
2024/01/22 02:07:46;;;;;;;25.77;11.70;;;;;;;-2.66;73.76;101660.84;4953872;29;20031;-27
2024/01/22 02:10:12;;;;;;;22.75;11.05;;;;;;;-2.83;74.43;101666.00;4952494;28;20527;-27
2024/01/22 02:12:38;;;;;;;22.67;11.00;;;;;;;-3.00;75.38;101670.19;4954395;29;20046;-26
2024/01/22 02:15:04;;;;;;;24.73;11.02;;;;;;;-2.88;75.45;101658.38;4954250;29;20419;-26
2024/01/22 02:17:30;;;;;;;25.20;10.68;;;;;;;-2.81;74.42;101665.00;4953836;29;20476;-26
2024/01/22 02:19:55;;;;;;;20.67;10.40;;;;;;;-3.00;74.62;101669.38;4953982;29;20170;-25
2024/01/22 02:22:21;;;;;;;24.42;11.93;;;;;;;-3.03;75.37;101662.50;4953938;29;20031;-25
2024/01/22 02:24:46;;;;;;;25.15;11.68;;;;;;;-3.34;74.41;101665.66;4953923;29;20028;-26
2024/01/22 02:27:11;;;;;;;22.60;11.13;;;;;;;-3.36;76.65;101668.31;4953989;29;20110;-27
2024/01/22 02:29:37;;;;;;;23.92;12.15;;;;;;;-3.29;74.88;101658.50;4953395;29;20456;-28
2024/01/22 02:32:02;;;;;;;29.63;12.52;;;;;;;-3.39;75.44;101665.00;4953809;29;20110;-26
2024/01/22 02:34:28;;;;;;;22.65;10.95;;;;;;;-3.62;77.07;101651.19;4938612;29;20542;-25
2024/01/22 02:36:53;;;;;;;24.52;11.68;;;;;;;-3.40;76.15;101650.28;4935149;29;20028;-26
2024/01/22 02:39:19;;;;;;;21.90;11.02;;;;;;;-3.30;75.67;101653.34;4934473;29;20020;-25
2024/01/22 02:41:44;;;;;;;24.55;10.65;;;;;;;-3.55;76.38;101651.81;4934076;29;20433;-26
2024/01/22 02:44:09;;;;;;;24.40;10.43;;;;;;;-3.28;74.69;101652.34;4934179;29;20047;-25
2024/01/22 02:46:35;;;;;;;22.15;10.93;;;;;;;-3.23;74.39;101650.41;4934298;29;20028;-26
2024/01/22 02:49:00;;;;;;;22.75;10.80;;;;;;;-3.40;74.90;101656.34;4941998;29;20078;-26
2024/01/22 02:51:25;;;;;;;20.30;9.88;;;;;;;-3.44;75.36;101660.00;4953453;29;20110;-26
2024/01/22 02:53:52;;;;;;;21.85;10.70;;;;;;;-3.23;74.59;101660.81;4953358;29;20098;-26
2024/01/22 02:56:18;;;;;;;18.65;9.93;;;;;;;-3.15;73.92;101656.09;4953308;29;20031;-26
2024/01/22 02:58:43;;;;;;;22.15;10.38;;;;;;;-3.01;73.48;101658.09;4953198;29;20435;-25
2024/01/22 03:01:09;;;;;;;21.38;10.07;;;;;;;-2.90;73.33;101654.16;4953043;29;20030;-25
2024/01/22 03:03:34;;;;;;;19.80;9.82;;;;;;;-3.01;73.13;101652.03;4953349;29;20031;-26
2024/01/22 03:05:59;;;;;;;22.40;10.32;;;;;;;-3.11;74.10;101662.03;4953189;29;20074;-26
2024/01/22 03:08:25;;;;;;;22.80;10.48;;;;;;;-2.86;72.66;101660.91;4952964;29;20110;-26
2024/01/22 03:10:50;;;;;;;23.52;10.68;;;;;;;-2.95;71.61;101657.00;4953173;29;20488;-26
2024/01/22 03:13:15;;;;;;;20.67;10.13;;;;;;;-3.12;73.83;101656.88;4953275;29;20031;-26
2024/01/22 03:15:41;;;;;;;22.30;10.73;;;;;;;-3.10;73.85;101668.06;4953081;29;20038;-26
2024/01/22 03:18:07;;;;;;;22.25;10.90;;;;;;;-3.28;75.43;101662.75;4953089;29;20392;-26
2024/01/22 03:20:32;;;;;;;24.35;11.30;;;;;;;-3.31;75.24;101664.66;4953086;29;20023;-26
2024/01/22 03:22:57;;;;;;;22.98;10.43;;;;;;;-3.37;75.97;101658.81;4958896;28;20035;-26
2024/01/22 03:25:23;;;;;;;23.40;10.90;;;;;;;-3.36;74.50;101670.06;4959767;29;20121;-26
2024/01/22 03:27:48;;;;;;;20.45;9.98;;;;;;;-3.28;74.70;101673.19;4959143;28;20027;-26
2024/01/22 03:30:14;;;;;;;25.55;11.50;;;;;;;-3.22;73.86;101674.66;4959462;28;20023;-25
2024/01/22 03:32:39;;;;;;;26.25;10.85;;;;;;;-2.92;73.04;101679.44;4959313;29;20111;-39
2024/01/22 03:35:05;;;;;;;22.75;10.52;;;;;;;-3.09;71.85;101678.44;4959322;28;20122;-39
2024/01/22 03:37:30;;;;;;;20.55;10.63;;;;;;;-2.96;70.73;101686.56;4959309;29;20030;-40
2024/01/22 03:39:55;;;;;;;18.80;10.45;;;;;;;-3.02;72.17;101679.00;4959334;29;20459;-39
2024/01/22 03:42:21;;;;;;;21.73;9.30;;;;;;;-3.45;72.54;101683.47;4959116;29;20073;-39
2024/01/22 03:44:46;;;;;;;22.17;10.45;;;;;;;-3.50;73.93;101688.91;4958953;28;20113;-26
2024/01/22 03:47:12;;;;;;;21.13;9.63;;;;;;;-3.62;73.79;101677.22;4959292;29;20050;-26
2024/01/22 03:49:37;;;;;;;20.95;9.27;;;;;;;-3.31;73.44;101694.16;4959193;28;20069;-26
2024/01/22 03:52:03;;;;;;;21.67;10.07;;;;;;;-3.06;73.44;101696.53;4958962;28;20111;-26
2024/01/22 03:54:28;;;;;;;21.05;9.70;;;;;;;-2.93;72.46;101683.81;4958962;28;20356;-26
2024/01/22 03:56:53;;;;;;;20.58;9.75;;;;;;;-3.33;71.53;101690.78;4956402;28;20035;-26
2024/01/22 03:59:19;;;;;;;22.05;9.57;;;;;;;-3.63;73.88;101698.97;4942581;29;20087;-25
2024/01/22 04:01:44;;;;;;;21.15;10.00;;;;;;;-3.53;72.55;101691.63;4951429;29;20027;-26
2024/01/22 04:04:11;;;;;;;18.27;9.88;;;;;;;-3.36;72.98;101689.13;4958551;28;20078;-26
2024/01/22 04:06:37;;;;;;;20.40;10.10;;;;;;;-3.64;73.21;101691.22;4958850;29;20050;-26
2024/01/22 04:09:02;;;;;;;20.02;9.88;;;;;;;-3.64;73.59;101697.28;4958290;28;20058;-26
2024/01/22 04:11:28;;;;;;;26.73;10.88;;;;;;;-3.88;75.01;101701.75;4958504;29;20045;-26
2024/01/22 04:13:53;;;;;;;21.27;10.45;;;;;;;-4.01;75.74;101688.38;4958739;29;20030;-26
2024/01/22 04:16:18;;;;;;;20.08;9.77;;;;;;;-4.12;75.47;101685.38;4958632;29;20042;-26
2024/01/22 04:18:44;;;;;;;25.73;10.65;;;;;;;-4.10;75.63;101695.72;4958866;29;20045;-26
2024/01/22 04:21:10;;;;;;;23.77;10.73;;;;;;;-4.04;75.04;101706.72;4958849;29;20027;-26
2024/01/22 04:23:36;;;;;;;20.02;9.75;;;;;;;-4.08;77.82;101701.69;4958752;29;20027;-24
2024/01/22 04:26:03;;;;;;;44.60;20.90;;;;;;;-3.36;76.14;101698.72;4959030;28;20030;-24
2024/01/22 04:28:28;;;;;;;24.88;11.52;;;;;;;-2.57;72.83;101703.88;4958777;29;20028;-25
2024/01/22 04:30:54;;;;;;;25.20;11.90;;;;;;;-2.06;69.61;101697.13;4957404;28;20041;-25
2024/01/22 04:33:19;;;;;;;19.85;9.98;;;;;;;-2.01;67.49;101696.91;4937335;29;20071;-25
2024/01/22 04:35:45;;;;;;;21.45;10.80;;;;;;;-1.96;67.23;101708.00;4954158;29;20026;-26
2024/01/22 04:38:10;;;;;;;24.77;10.98;;;;;;;-1.58;66.61;101703.47;4954956;29;20034;-26
2024/01/22 04:40:35;;;;;;;25.15;11.45;;;;;;;-1.68;66.33;101702.22;4955565;29;20042;-26
2024/01/22 04:43:01;;;;;;;24.67;10.55;;;;;;;-1.29;64.83;101711.59;4955540;29;20038;-26
2024/01/22 04:45:27;;;;;;;22.65;10.63;;;;;;;-1.43;64.54;101712.31;4955448;29;20035;-26
2024/01/22 04:47:52;;;;;;;24.42;10.68;;;;;;;-2.65;68.82;101700.78;4955667;29;20039;-26
2024/01/22 04:50:18;;;;;;;26.35;10.65;;;;;;;-3.20;71.72;101709.31;4955306;29;20476;-26
2024/01/22 04:52:43;;;;;;;23.52;11.27;;;;;;;-2.58;71.47;101710.03;4954880;29;20102;-26
2024/01/22 04:55:08;;;;;;;27.00;11.82;;;;;;;-2.67;74.18;101713.06;4955221;29;20127;-27
2024/01/22 04:57:34;;;;;;;23.90;10.63;;;;;;;-3.09;71.29;101720.09;4955054;29;20029;-26
2024/01/22 04:59:59;;;;;;;28.52;12.00;;;;;;;-3.46;72.67;101721.69;4955521;29;20030;-25
2024/01/22 05:02:27;;;;;;;23.83;11.27;;;;;;;-3.80;75.06;101715.28;4955350;29;20027;-26
2024/01/22 05:04:56;;;;;;;24.50;11.52;;;;;;;-3.68;74.57;101707.88;4955536;29;20476;-26
2024/01/22 05:07:25;;;;;;;23.58;10.82;;;;;;;-3.80;74.56;101706.63;4955327;29;20031;-25
2024/01/22 05:09:57;;;;;;;23.38;11.30;;;;;;;-2.83;72.56;101716.34;4955530;29;20042;-26
2024/01/22 05:12:23;;;;;;;23.42;10.57;;;;;;;-2.99;72.13;101717.94;4954061;29;20410;-26
2024/01/22 05:14:48;;;;;;;25.38;11.18;;;;;;;-2.89;75.99;101721.84;4927813;29;20031;-25
2024/01/22 05:17:14;;;;;;;26.00;12.20;;;;;;;-2.77;80.63;101718.69;4935355;29;20055;-27
2024/01/22 05:19:39;;;;;;;24.75;11.07;;;;;;;-2.69;83.30;101727.91;4940720;29;20447;-26
2024/01/22 05:22:04;;;;;;;26.13;11.88;;;;;;;-2.80;77.23;101725.78;4953124;29;20038;-27
2024/01/22 05:24:30;;;;;;;25.55;10.82;;;;;;;-2.88;73.22;101726.13;4953728;29;20042;-26
2024/01/22 05:26:55;;;;;;;22.67;10.77;;;;;;;-3.13;72.03;101720.31;4954930;29;20031;-26
2024/01/22 05:29:20;;;;;;;23.77;10.93;;;;;;;-3.36;73.14;101719.53;4955077;29;20039;-26
2024/01/22 05:31:46;;;;;;;21.23;10.15;;;;;;;-3.49;74.71;101721.81;4954729;29;20531;-26
2024/01/22 05:34:11;;;;;;;24.65;11.55;;;;;;;-3.38;73.33;101722.22;4954845;29;20031;-27
2024/01/22 05:36:37;;;;;;;22.80;10.95;;;;;;;-3.38;73.19;101714.41;4954261;29;20126;-27
2024/01/22 05:39:05;;;;;;;25.27;11.00;;;;;;;-3.45;74.88;101715.56;4954175;29;20027;-27
2024/01/22 05:41:30;;;;;;;23.02;10.68;;;;;;;-3.34;73.35;101718.56;4953978;29;20031;-25
2024/01/22 05:43:56;;;;;;;25.85;11.43;;;;;;;-3.41;72.39;101718.88;4953459;28;20034;-27
2024/01/22 05:46:21;;;;;;;26.67;10.93;;;;;;;-3.39;72.20;101709.25;4953442;29;20023;-26
2024/01/22 05:48:46;;;;;;;24.60;10.55;;;;;;;-3.38;74.01;101714.41;4953161;29;20551;-26
2024/01/22 05:51:12;;;;;;;27.10;10.60;;;;;;;-3.43;73.25;101710.28;4953834;29;20110;-26
2024/01/22 05:53:38;;;;;;;26.45;11.63;;;;;;;-3.30;71.29;101711.47;4953507;29;20081;-27
2024/01/22 05:56:04;;;;;;;21.80;10.40;;;;;;;-3.47;73.23;101711.34;4953615;29;20062;-26
2024/01/22 05:58:29;;;;;;;21.85;10.40;;;;;;;-3.08;70.94;101719.22;4953377;29;20042;-27
2024/01/22 06:00:55;;;;;;;21.73;10.48;;;;;;;-3.20;71.53;101714.50;4953961;29;20034;-26
2024/01/22 06:03:20;;;;;;;18.52;9.00;;;;;;;-3.50;71.45;101714.06;4953792;29;20035;-27
2024/01/22 06:05:46;;;;;;;22.23;10.10;;;;;;;-3.84;72.80;101708.53;4954126;29;20220;-28
2024/01/22 06:08:11;;;;;;;20.73;10.00;;;;;;;-3.38;71.68;101724.81;4953634;29;20488;-27
2024/01/22 06:10:36;;;;;;;22.75;9.48;;;;;;;-2.76;68.05;101717.78;4953783;29;20122;-26
2024/01/22 06:13:02;;;;;;;19.92;9.55;;;;;;;-2.98;68.23;101724.84;4953700;29;20114;-27
2024/01/22 06:15:27;;;;;;;21.58;10.98;;;;;;;-2.85;68.35;101731.22;4950341;29;20046;-27
2024/01/22 06:17:53;;;;;;;19.77;9.30;;;;;;;-2.82;68.58;101727.63;4954142;29;20031;-26
2024/01/22 06:20:19;;;;;;;22.90;10.65;;;;;;;-2.51;67.75;101716.66;4954061;29;20031;-26
2024/01/22 06:22:44;;;;;;;20.80;10.18;;;;;;;-2.31;66.21;101730.53;4953944;29;20038;-27
2024/01/22 06:25:09;;;;;;;22.45;9.77;;;;;;;-2.29;67.28;101732.13;4953682;29;20035;-27
2024/01/22 06:27:35;;;;;;;20.63;10.02;;;;;;;-1.99;65.61;101732.44;4953507;29;20427;-27
2024/01/22 06:30:01;;;;;;;19.40;9.32;;;;;;;-1.69;65.14;101746.72;4953646;29;20038;-28
2024/01/22 06:32:27;;;;;;;20.38;10.23;;;;;;;-2.08;65.53;101729.44;4953574;29;20051;-26
2024/01/22 06:34:53;;;;;;;19.10;9.40;;;;;;;-1.99;64.79;101742.88;4953811;29;20404;-27
2024/01/22 06:37:22;;;;;;;23.60;9.30;;;;;;;-1.81;63.89;101740.31;4952923;29;20034;-26
2024/01/22 06:39:47;;;;;;;17.65;8.95;;;;;;;-1.71;64.66;101741.56;4953299;29;20031;-26
2024/01/22 06:42:12;;;;;;;18.55;9.38;;;;;;;-1.70;63.99;101743.22;4952909;29;20090;-28
2024/01/22 06:44:38;;;;;;;22.38;10.30;;;;;;;-1.62;64.03;101740.25;4952797;29;20031;-27
2024/01/22 06:47:04;;;;;;;26.10;9.88;;;;;;;-1.16;62.79;101747.53;4952907;29;20026;-27
2024/01/22 06:49:30;;;;;;;26.08;10.48;;;;;;;-0.92;62.36;101745.44;4952773;29;20114;-29
2024/01/22 06:51:55;;;;;;;25.55;11.75;;;;;;;-0.45;62.26;101740.28;4953513;29;20055;-30
2024/01/22 06:54:21;;;;;;;21.80;11.23;;;;;;;0.00;59.50;101740.47;4953344;29;20027;-27
2024/01/22 06:56:46;;;;;;;26.77;11.80;;;;;;;0.15;58.14;101736.09;4952793;28;20531;-27
2024/01/22 06:59:11;;;;;;;21.15;10.23;;;;;;;0.20;58.35;101752.41;4953076;29;20035;-26
2024/01/22 07:01:37;;;;;;;21.23;10.48;;;;;;;0.04;58.32;101755.06;4953240;29;20399;-27
2024/01/22 07:04:03;;;;;;;21.75;10.70;;;;;;;-0.11;59.28;101748.06;4953019;29;20062;-27
2024/01/22 07:06:28;;;;;;;23.15;11.05;;;;;;;-0.14;60.23;101763.94;4953145;29;20031;-27
2024/01/22 07:08:54;;;;;;;21.15;9.70;;;;;;;0.13;59.25;101758.91;4953200;29;20098;-26
2024/01/22 07:11:19;;;;;;;22.90;10.43;;;;;;;0.36;58.36;101765.47;4953093;29;20027;-28
2024/01/22 07:13:45;;;;;;;26.60;11.25;;;;;;;0.47;58.12;101770.09;4953293;29;20380;-27
2024/01/22 07:16:11;;;;;;;22.45;10.27;;;;;;;0.55;57.59;101754.75;4952803;29;20035;-29
2024/01/22 07:18:37;;;;;;;21.17;11.23;;;;;;;0.45;58.10;101767.56;4952787;29;20023;-29
2024/01/22 07:21:02;;;;;;;21.23;11.95;;;;;;;0.58;57.63;101767.69;4952804;29;20098;-27
2024/01/22 07:23:28;;;;;;;27.98;13.23;;;;;;;1.01;57.07;101775.66;4953136;29;20027;-28
2024/01/22 07:25:56;;;;;;;28.98;13.10;;;;;;;0.75;57.42;101766.72;4952846;29;20038;-29
2024/01/22 07:28:22;;;;;;;25.20;12.10;;;;;;;1.16;56.31;101769.50;4952319;29;20110;-27
2024/01/22 07:30:47;;;;;;;29.00;12.98;;;;;;;1.33;56.29;101770.22;4952681;29;20460;-27
2024/01/22 07:33:12;;;;;;;24.48;12.93;;;;;;;1.50;55.22;101770.03;4952317;29;20504;-28
2024/01/22 07:35:38;;;;;;;27.88;13.15;;;;;;;1.68;54.86;101770.69;4952809;29;20050;-27
2024/01/22 07:38:05;;;;;;;26.85;12.63;;;;;;;1.47;55.32;101775.47;4952513;29;20486;-27
2024/01/22 07:40:31;;;;;;;24.25;11.90;;;;;;;1.42;55.53;101774.91;4952585;29;20487;-28
2024/01/22 07:42:56;;;;;;;27.42;12.60;;;;;;;1.66;54.98;101769.09;4952641;29;20027;-28
2024/01/22 07:45:21;;;;;;;21.85;10.40;;;;;;;1.53;55.65;101771.63;4952192;29;20419;-29
2024/01/22 07:47:47;;;;;;;19.73;10.55;;;;;;;2.22;53.85;101764.63;4952365;29;20234;-28
2024/01/22 07:50:14;;;;;;;20.60;9.98;;;;;;;2.12;52.67;101774.03;4952399;29;20031;-28
2024/01/22 07:52:40;;;;;;;21.35;10.48;;;;;;;2.37;52.66;101768.03;4952652;29;20027;-28
2024/01/22 07:55:06;;;;;;;20.38;9.88;;;;;;;2.43;52.31;101772.03;4952544;29;20023;-28
2024/01/22 07:57:32;;;;;;;18.70;9.32;;;;;;;2.57;52.30;101768.50;4952756;29;20026;-27
2024/01/22 07:59:57;;;;;;;18.73;9.20;;;;;;;3.47;50.68;101780.75;4952192;29;20035;-27
2024/01/22 08:02:23;;;;;;;17.23;9.30;;;;;;;3.38;49.75;101770.03;4952271;29;20035;-27
2024/01/22 08:04:50;;;;;;;18.05;10.02;;;;;;;3.07;50.31;101778.25;4952486;29;20102;-27
2024/01/22 08:07:16;;;;;;;18.20;9.80;;;;;;;3.32;49.95;101774.75;4952442;28;20031;-28
2024/01/22 08:09:41;;;;;;;17.05;9.32;;;;;;;3.65;49.56;101778.59;4955082;29;20082;-29
2024/01/22 08:12:07;;;;;;;18.13;9.63;;;;;;;4.24;48.81;101764.69;4956300;29;20101;-27
2024/01/22 08:14:35;;;;;;;19.50;10.30;;;;;;;4.23;47.69;101773.56;4955617;29;20031;-27
2024/01/22 08:17:03;;;;;;;15.18;8.45;;;;;;;4.05;47.46;101769.63;4955937;29;20111;-27
2024/01/22 08:19:30;;;;;;;22.42;9.88;;;;;;;3.52;48.40;101770.75;4955715;29;20023;-27
2024/01/22 08:21:55;;;;;;;18.40;9.13;;;;;;;3.89;48.15;101767.28;4955836;29;20042;-27
2024/01/22 08:24:21;;;;;;;18.40;9.52;;;;;;;4.81;46.78;101759.63;4955602;29;20031;-26
2024/01/22 08:26:48;;;;;;;18.45;9.15;;;;;;;4.52;46.39;101770.56;4956122;29;20086;-27
2024/01/22 08:29:14;;;;;;;14.55;8.75;;;;;;;3.91;47.42;101762.72;4955833;29;20027;-27
2024/01/22 08:31:39;;;;;;;17.55;9.07;;;;;;;4.19;46.58;101777.38;4956022;29;20114;-27
2024/01/22 08:34:05;;;;;;;19.88;8.90;;;;;;;4.26;46.70;101767.22;4955972;29;20034;-28
2024/01/22 08:36:30;;;;;;;16.73;8.45;;;;;;;4.52;45.54;101767.09;4955694;29;20043;-28
2024/01/22 08:38:56;;;;;;;18.90;8.82;;;;;;;4.11;46.86;101753.38;4955369;29;20027;-28
2024/01/22 08:41:26;;;;;;;16.13;8.63;;;;;;;3.75;47.65;101770.03;4955768;29;20042;-27
2024/01/22 08:43:55;;;;;;;16.58;8.63;;;;;;;4.00;47.71;101764.72;4955421;29;20031;-27
2024/01/22 08:46:21;;;;;;;17.05;8.95;;;;;;;4.42;46.77;101759.03;4955139;29;20052;-26
2024/01/22 08:48:46;;;;;;;15.55;7.95;;;;;;;4.74;45.04;101759.25;4955490;29;20039;-27
2024/01/22 08:51:12;;;;;;;14.50;8.10;;;;;;;4.41;44.99;101758.19;4955472;29;20094;-26
2024/01/22 08:53:37;;;;;;;15.30;8.23;;;;;;;4.94;44.52;101757.72;4955369;29;20110;-26
2024/01/22 08:56:03;;;;;;;16.13;7.47;;;;;;;3.89;46.08;101749.66;4955501;29;20119;-29
2024/01/22 08:58:28;;;;;;;16.00;7.72;;;;;;;3.52;47.23;101744.41;4955660;29;20033;-27
2024/01/22 09:00:53;;;;;;;13.35;7.25;;;;;;;3.58;47.06;101745.78;4955081;29;20459;-26
2024/01/22 09:03:24;;;;;;;13.75;7.55;;;;;;;3.88;47.10;101741.88;4955242;29;20058;-27
2024/01/22 09:05:49;;;;;;;13.82;7.20;;;;;;;4.11;46.40;101732.28;4955224;29;20031;-26
2024/01/22 09:08:14;;;;;;;13.15;7.10;;;;;;;3.66;47.12;101735.53;4955088;29;20038;-26
2024/01/22 09:10:40;;;;;;;14.23;7.20;;;;;;;3.99;47.09;101733.19;4955555;29;20529;-26
2024/01/22 09:13:05;;;;;;;14.07;7.88;;;;;;;3.51;47.97;101732.19;4955174;29;20054;-26
2024/01/22 09:15:30;;;;;;;19.17;8.15;;;;;;;3.85;48.71;101727.13;4955024;29;20027;-27
2024/01/22 09:17:56;;;;;;;21.33;8.60;;;;;;;3.97;48.24;101714.03;4954937;29;20023;-28
2024/01/22 09:20:21;;;;;;;16.00;8.77;;;;;;;3.77;49.26;101721.59;4954446;28;20034;-26
2024/01/22 09:22:48;;;;;;;16.30;9.10;;;;;;;3.67;50.70;101717.94;4954919;29;20035;-27
2024/01/22 09:25:13;;;;;;;16.02;8.85;;;;;;;4.00;49.28;101709.38;4954933;29;20054;-26
2024/01/22 09:27:39;;;;;;;15.88;9.18;;;;;;;4.11;48.94;101711.19;4954622;29;20027;-26
2024/01/22 09:30:05;;;;;;;17.20;8.40;;;;;;;4.59;47.72;101712.91;4954588;29;20055;-26
2024/01/22 09:32:30;;;;;;;16.17;8.77;;;;;;;4.14;48.17;101704.88;4954583;29;20086;-27
2024/01/22 09:34:55;;;;;;;16.58;8.15;;;;;;;4.01;48.20;101702.31;4954829;29;20480;-26
2024/01/22 09:37:21;;;;;;;13.45;8.00;;;;;;;4.05;47.83;101699.31;4954742;29;20031;-25
2024/01/22 09:39:46;;;;;;;15.02;8.23;;;;;;;3.46;48.33;101688.72;4954673;29;20038;-27
2024/01/22 09:42:14;;;;;;;15.30;8.48;;;;;;;4.11;47.32;101696.25;4954350;29;20023;-26
2024/01/22 09:44:44;;;;;;;14.05;7.38;;;;;;;4.65;45.62;101689.56;4954238;29;20472;-28
2024/01/22 09:47:10;;;;;;;18.05;8.55;;;;;;;3.98;47.56;101676.19;4954527;29;20034;-27
2024/01/22 09:49:36;;;;;;;14.70;7.50;;;;;;;3.87;47.06;101683.09;4954090;29;20176;-26
2024/01/22 09:52:02;;;;;;;16.77;7.60;;;;;;;4.15;46.96;101683.69;4954539;29;20118;-26
2024/01/22 09:54:29;;;;;;;12.68;6.90;;;;;;;4.52;46.63;101678.28;4954116;29;20062;-26
2024/01/22 09:56:55;;;;;;;13.07;7.05;;;;;;;3.98;47.23;101677.03;4954334;29;20180;-27
2024/01/22 09:59:22;;;;;;;14.88;7.60;;;;;;;3.31;48.95;101669.59;4954509;29;20413;-26
2024/01/22 10:01:49;;;;;;;14.20;7.80;;;;;;;3.71;48.43;101669.34;4954110;29;20027;-26
2024/01/22 10:04:15;;;;;;;16.42;8.38;;;;;;;3.82;48.10;101663.31;4936830;29;20031;-26
2024/01/22 10:06:41;;;;;;;16.65;8.27;;;;;;;3.75;47.20;101649.75;4954179;29;20038;-28
2024/01/22 10:09:06;;;;;;;18.80;9.90;;;;;;;4.12;47.09;101657.56;4954112;29;20027;-26
2024/01/22 10:11:32;;;;;;;16.50;10.20;;;;;;;3.96;47.68;101647.34;4953830;29;20039;-27
2024/01/22 10:13:58;;;;;;;14.75;8.27;;;;;;;4.09;48.35;101641.97;4953740;29;20107;-27
2024/01/22 10:16:26;;;;;;;16.63;7.60;;;;;;;3.62;49.10;101641.09;4954005;29;20019;-26
2024/01/22 10:18:57;;;;;;;17.35;8.60;;;;;;;3.93;48.22;101634.38;4953718;29;20475;-27
2024/01/22 10:21:23;;;;;;;14.32;7.30;;;;;;;4.63;46.92;101625.56;4954040;29;20037;-26
2024/01/22 10:23:56;;;;;;;14.48;7.95;;;;;;;4.25;47.50;101624.06;4954043;29;20144;-27
2024/01/22 10:26:22;;;;;;;18.17;9.93;;;;;;;4.40;47.68;101626.47;4953891;29;20492;-26
2024/01/22 10:28:47;;;;;;;17.25;9.30;;;;;;;4.05;48.13;101616.81;4940474;29;20055;-26
2024/01/22 10:31:13;;;;;;;16.33;9.32;;;;;;;3.93;48.58;101613.31;4933359;29;20405;-27
2024/01/22 10:33:38;;;;;;;14.75;8.40;;;;;;;4.04;48.18;101604.63;4934448;29;20032;-26
2024/01/22 10:36:16;;;;;;;16.10;8.35;;;;;;;4.33;48.58;101604.19;4934483;29;20024;-27
2024/01/22 10:38:41;;;;;;;19.02;7.78;;;;;;;3.94;48.85;101598.34;4934794;29;20031;-27
2024/01/22 10:41:19;;;;;;;14.38;7.07;;;;;;;3.94;48.15;101606.25;4934530;29;20027;-26
2024/01/22 10:43:44;;;;;;;11.95;6.50;;;;;;;3.94;48.22;101608.88;4934341;29;20027;-26
2024/01/22 10:46:11;;;;;;;12.43;5.88;;;;;;;4.07;47.59;101602.59;4934053;29;20508;-27
2024/01/22 10:48:38;;;;;;;12.55;6.65;;;;;;;4.42;47.07;101600.84;4934174;29;20051;-25
2024/01/22 10:51:05;;;;;;;12.10;6.38;;;;;;;4.14;48.73;101588.94;4934347;29;20035;-26
2024/01/22 10:53:34;;;;;;;15.63;7.63;;;;;;;3.88;48.27;101586.47;4934283;29;20027;-26
2024/01/22 10:56:05;;;;;;;12.57;6.95;;;;;;;3.66;48.04;101584.59;4934366;29;20020;-26
2024/01/22 10:58:41;;;;;;;16.98;7.82;;;;;;;4.18;47.02;101591.22;4934177;29;20087;-26
2024/01/22 11:01:17;;;;;;;17.70;7.80;;;;;;;3.83;48.79;101584.19;4934048;29;20103;-26
2024/01/22 11:03:47;;;;;;;12.88;6.63;;;;;;;3.56;49.46;101586.22;4934266;29;20034;-26
2024/01/22 11:06:18;;;;;;;13.23;6.63;;;;;;;3.10;50.80;101593.88;4934075;29;20019;-26
2024/01/22 11:08:48;;;;;;;16.48;7.50;;;;;;;3.21;51.68;101584.38;4934008;29;20388;-26